Time;durP1;ratioP1;P1;durP2;ratioP2;P2;SDS_P1;SDS_P2;PMS_P1;PMS_P2;Temp;Humidity;BMP_temperature;BMP_pressure;BME280_temperature;BME280_humidity;BME280_pressure;Samples;Min_cycle;Max_cycle;Signal;HPM_P1;HPM_P2
2021/03/27 00:01:56;;;;;;;8.17;7.10;;;;;;;10.07;58.42;100035.16;5035971;28;20202;-75
2021/03/27 00:04:27;;;;;;;7.97;7.13;;;;;;;10.08;58.52;100034.25;5033354;28;20232;-75
2021/03/27 00:07:01;;;;;;;7.67;6.97;;;;;;;10.02;59.04;100039.63;5047758;28;20238;-75
2021/03/27 00:09:35;;;;;;;7.47;6.87;;;;;;;10.07;59.03;100027.34;5041077;28;20212;-75
2021/03/27 00:12:06;;;;;;;7.40;6.80;;;;;;;9.99;58.54;100022.31;5047383;28;20202;-74
2021/03/27 00:14:41;;;;;;;7.63;6.90;;;;;;;9.99;58.17;100019.69;5044199;28;20368;-75
2021/03/27 00:17:11;;;;;;;8.27;7.57;;;;;;;10.00;58.69;100020.53;5053243;28;20211;-74
2021/03/27 00:19:42;;;;;;;8.63;6.87;;;;;;;9.93;58.95;100023.28;5043455;28;20203;-75
2021/03/27 00:22:16;;;;;;;7.33;6.73;;;;;;;9.99;58.10;100011.88;5047793;28;20285;-75
2021/03/27 00:25:12;;;;;;;8.07;7.30;;;;;;;10.07;58.87;100009.09;5036704;28;20260;-75
2021/03/27 00:27:43;;;;;;;7.23;6.40;;;;;;;10.06;59.28;100013.44;5050332;28;20222;-75
2021/03/27 00:30:13;;;;;;;6.60;6.00;;;;;;;10.07;58.29;100011.69;5036327;28;20189;-75
2021/03/27 00:32:43;;;;;;;6.47;5.90;;;;;;;10.05;58.23;100000.41;5049953;28;20240;-75
2021/03/27 00:35:14;;;;;;;6.23;5.73;;;;;;;9.94;59.64;99996.31;5035925;28;20197;-75
2021/03/27 00:37:41;;;;;;;6.77;6.07;;;;;;;9.96;59.32;100001.50;5049621;28;20560;-75
2021/03/27 00:40:13;;;;;;;6.37;5.73;;;;;;;9.98;57.76;100002.31;5035903;28;20201;-75
2021/03/27 00:42:42;;;;;;;6.37;5.77;;;;;;;9.95;58.36;99997.19;5048730;28;20226;-74
2021/03/27 00:45:13;;;;;;;6.83;5.70;;;;;;;10.01;58.52;99997.03;5047002;28;20219;-75
2021/03/27 00:47:41;;;;;;;8.83;6.07;;;;;;;10.02;58.31;99984.84;5051066;28;20372;-75
2021/03/27 00:50:12;;;;;;;5.53;5.03;;;;;;;10.08;57.71;99982.09;5040905;28;20204;-75
2021/03/27 00:52:41;;;;;;;7.17;6.07;;;;;;;10.08;58.64;99979.50;5049808;28;20225;-74
2021/03/27 00:55:14;;;;;;;6.73;6.07;;;;;;;9.98;58.87;99972.78;5040522;28;20205;-75
2021/03/27 00:57:44;;;;;;;6.40;5.80;;;;;;;9.96;59.16;99977.19;5049090;28;20206;-74
2021/03/27 01:00:15;;;;;;;7.17;5.80;;;;;;;9.88;58.69;99977.38;5035600;28;20575;-74
2021/03/27 01:02:46;;;;;;;5.77;5.23;;;;;;;9.88;58.58;99970.38;5049583;28;20225;-74
2021/03/27 01:05:16;;;;;;;5.77;5.10;;;;;;;9.86;59.59;99969.56;5035662;28;20746;-75
2021/03/27 01:07:43;;;;;;;5.43;4.93;;;;;;;9.81;60.00;99971.44;5049248;28;20258;-75
2021/03/27 01:10:17;;;;;;;8.57;4.70;;;;;;;9.85;57.68;99970.47;5035527;28;20205;-75
2021/03/27 01:12:45;;;;;;;6.60;5.53;;;;;;;9.93;59.40;99952.91;5048663;28;20229;-75
2021/03/27 01:15:15;;;;;;;6.10;5.50;;;;;;;9.94;59.71;99951.16;5037492;28;20206;-75
2021/03/27 01:17:44;;;;;;;5.60;5.10;;;;;;;9.75;60.07;99945.50;5027328;28;20207;-75
2021/03/27 01:20:18;;;;;;;5.20;4.70;;;;;;;9.77;59.78;99943.72;5034865;28;20209;-75
2021/03/27 01:22:46;;;;;;;5.97;5.10;;;;;;;9.70;60.36;99942.16;5048802;28;20226;-75
2021/03/27 01:25:18;;;;;;;5.67;4.93;;;;;;;9.69;60.87;99943.03;5035703;28;20230;-75
2021/03/27 01:27:52;;;;;;;5.87;5.37;;;;;;;9.70;60.42;99943.00;5048876;28;20192;-75
2021/03/27 01:30:27;;;;;;;5.30;4.57;;;;;;;9.72;59.91;99936.00;5039852;28;20641;-75
2021/03/27 01:32:56;;;;;;;5.97;4.93;;;;;;;9.68;60.83;99921.34;5014518;28;20269;-75
2021/03/27 01:35:29;;;;;;;5.00;4.50;;;;;;;9.65;59.93;99918.81;5040271;28;20242;-75
2021/03/27 01:37:59;;;;;;;4.60;4.20;;;;;;;9.64;60.61;99918.84;5048192;28;20206;-74
2021/03/27 01:40:34;;;;;;;5.17;4.60;;;;;;;9.61;60.28;99913.69;5040532;28;20207;-75
2021/03/27 01:43:13;;;;;;;5.30;4.90;;;;;;;9.60;60.57;99914.59;5043523;28;20232;-75
2021/03/27 01:46:06;;;;;;;5.10;4.67;;;;;;;9.62;60.75;99905.84;5049236;28;20211;-75
2021/03/27 01:48:37;;;;;;;5.10;4.70;;;;;;;9.58;60.42;99903.38;5044147;28;20227;-75
2021/03/27 01:51:14;;;;;;;5.07;4.57;;;;;;;9.57;60.63;99905.09;5043157;28;20666;-75
2021/03/27 01:53:46;;;;;;;5.87;4.60;;;;;;;9.38;60.58;99903.84;5019719;28;20314;-75
2021/03/27 01:56:27;;;;;;;5.33;4.83;;;;;;;9.40;61.14;99908.09;5046474;28;20675;-75
2021/03/27 01:58:59;;;;;;;5.67;4.33;;;;;;;9.42;61.62;99898.50;5020914;28;20595;-75
2021/03/27 02:01:32;;;;;;;4.87;4.43;;;;;;;9.40;60.61;99889.88;5026598;28;20210;-75
2021/03/27 02:04:04;;;;;;;4.60;4.07;;;;;;;9.41;60.75;99893.31;5035263;28;20221;-75
2021/03/27 02:06:35;;;;;;;4.67;4.23;;;;;;;9.41;60.76;99893.31;5041816;28;20713;-75
2021/03/27 02:09:07;;;;;;;4.87;4.40;;;;;;;9.27;60.66;99891.03;5036307;28;20204;-75
2021/03/27 02:11:51;;;;;;;5.30;4.80;;;;;;;9.34;60.45;99883.06;5051368;28;20198;-75
2021/03/27 02:14:21;;;;;;;5.43;4.90;;;;;;;9.31;60.63;99888.31;5042803;28;20230;-75
2021/03/27 02:16:51;;;;;;;5.10;4.60;;;;;;;9.37;60.27;99879.50;5034774;28;20207;-75
2021/03/27 02:19:42;;;;;;;5.53;4.93;;;;;;;9.28;60.88;99871.94;5026564;28;20209;-75
2021/03/27 02:22:21;;;;;;;5.47;4.83;;;;;;;9.29;61.67;99860.59;5034701;28;20202;-75
2021/03/27 02:25:12;;;;;;;5.70;5.30;;;;;;;9.36;61.34;99853.53;5029282;28;20677;-75
2021/03/27 02:27:44;;;;;;;5.43;4.93;;;;;;;9.39;61.77;99854.28;5032271;28;20203;-75
2021/03/27 02:30:20;;;;;;;5.63;5.13;;;;;;;9.34;61.04;99849.19;5036412;28;20196;-75
2021/03/27 02:32:55;;;;;;;8.50;6.23;;;;;;;9.37;61.01;99832.63;5051326;28;20234;-75
2021/03/27 02:35:34;;;;;;;5.50;5.00;;;;;;;9.38;60.62;99823.94;5039976;28;20230;-75
2021/03/27 02:38:18;;;;;;;5.30;4.80;;;;;;;9.37;60.80;99832.63;5019155;28;20287;-74
2021/03/27 02:40:54;;;;;;;5.40;4.90;;;;;;;9.51;60.60;99817.53;5039125;28;20208;-75
2021/03/27 02:43:26;;;;;;;5.43;4.93;;;;;;;9.63;59.54;99812.91;5036172;28;20293;-75
2021/03/27 02:46:01;;;;;;;4.27;3.87;;;;;;;9.72;60.46;99807.47;5040447;28;20213;-75
2021/03/27 02:48:39;;;;;;;4.23;3.83;;;;;;;9.78;60.00;99814.28;5032806;28;20208;-75
2021/03/27 02:51:09;;;;;;;4.80;4.00;;;;;;;9.83;57.98;99812.38;5052358;28;20634;-76
2021/03/27 02:53:43;;;;;;;4.87;3.23;;;;;;;10.02;55.98;99831.88;5025986;28;20234;-76
2021/03/27 02:56:22;;;;;;;4.83;3.70;;;;;;;10.19;56.85;99826.22;5036015;28;20203;-75
2021/03/27 02:59:08;;;;;;;4.73;3.40;;;;;;;10.33;56.79;99838.91;5029528;28;20324;-75
2021/03/27 03:01:43;;;;;;;4.03;3.73;;;;;;;10.41;56.76;99836.09;5046116;28;20212;-75
2021/03/27 03:04:13;;;;;;;4.33;3.57;;;;;;;10.56;58.25;99834.78;5041417;28;20226;-75
2021/03/27 03:06:47;;;;;;;3.50;3.00;;;;;;;10.57;59.42;99842.56;5046148;28;20232;-75
2021/03/27 03:09:18;;;;;;;2.83;2.63;;;;;;;10.55;58.52;99846.16;5047205;28;20218;-75
2021/03/27 03:11:53;;;;;;;3.97;3.10;;;;;;;10.55;59.89;99844.38;5045845;28;20672;-75
2021/03/27 03:14:26;;;;;;;6.40;4.13;;;;;;;10.48;59.99;99851.50;5046212;28;20735;-75
2021/03/27 03:17:01;;;;;;;4.37;3.97;;;;;;;10.33;60.97;99854.56;5054383;28;20196;-75
2021/03/27 03:19:37;;;;;;;4.53;4.00;;;;;;;10.29;61.13;99855.50;5046132;28;20204;-75
2021/03/27 03:22:12;;;;;;;4.07;3.70;;;;;;;10.26;62.03;99869.47;5048406;28;20240;-75
2021/03/27 03:24:42;;;;;;;3.93;3.63;;;;;;;10.18;63.43;99873.19;5044055;28;20597;-75
2021/03/27 03:27:14;;;;;;;4.97;3.90;;;;;;;10.15;64.12;99874.13;5048756;28;20227;-74
2021/03/27 03:29:55;;;;;;;5.03;4.30;;;;;;;10.05;66.11;99885.69;5043803;28;20728;-74
2021/03/27 03:32:43;;;;;;;4.10;3.77;;;;;;;10.01;67.99;99900.56;5050420;28;20195;-75
2021/03/27 03:35:31;;;;;;;4.23;3.80;;;;;;;9.82;69.04;99907.13;5038569;28;20774;-75
2021/03/27 03:38:12;;;;;;;4.57;4.17;;;;;;;9.17;71.49;99912.97;5025293;28;20330;-75
2021/03/27 03:40:51;;;;;;;6.03;5.53;;;;;;;9.18;71.72;99910.34;5031344;28;20653;-74
2021/03/27 03:43:28;;;;;;;6.00;5.40;;;;;;;9.10;72.75;99920.91;5025440;28;20237;-74
2021/03/27 03:46:18;;;;;;;5.63;5.20;;;;;;;8.99;72.02;99933.28;5043533;28;20634;-75
2021/03/27 03:48:57;;;;;;;4.43;4.07;;;;;;;8.96;71.45;99941.19;5036653;28;20205;-74
2021/03/27 03:51:30;;;;;;;4.17;3.90;;;;;;;8.75;71.91;99932.03;5045268;28;20618;-74
2021/03/27 03:54:21;;;;;;;4.70;4.40;;;;;;;8.72;71.62;99950.28;5040500;28;20225;-75
2021/03/27 03:56:54;;;;;;;4.63;4.33;;;;;;;8.59;73.20;99948.84;5037554;28;20226;-75
2021/03/27 03:59:30;;;;;;;4.80;4.50;;;;;;;8.50;73.37;99961.13;5039992;28;20207;-75
2021/03/27 04:02:02;;;;;;;5.20;4.80;;;;;;;8.46;74.38;99975.09;5039809;28;20193;-73
2021/03/27 04:04:33;;;;;;;6.03;3.90;;;;;;;8.23;74.17;99996.25;5039286;28;20712;-75
2021/03/27 04:07:04;;;;;;;1.97;1.87;;;;;;;7.76;74.04;100008.22;5046822;28;20217;-74
2021/03/27 04:09:36;;;;;;;1.60;1.50;;;;;;;7.33;74.16;100025.25;5039300;28;20205;-74
2021/03/27 04:12:15;;;;;;;3.93;1.70;;;;;;;7.03;77.08;100034.22;5047488;28;20190;-76
2021/03/27 04:14:52;;;;;;;1.70;1.60;;;;;;;6.74;78.29;100040.59;5035107;28;20671;-74
2021/03/27 04:17:26;;;;;;;1.40;1.30;;;;;;;6.44;80.29;100062.47;5028464;28;20206;-74
2021/03/27 04:20:03;;;;;;;1.77;1.00;;;;;;;6.29;80.66;100070.38;5033219;28;20193;-74
2021/03/27 04:22:33;;;;;;;1.00;1.00;;;;;;;6.20;80.98;100094.59;5027440;28;20681;-73
2021/03/27 04:25:13;;;;;;;0.90;0.90;;;;;;;6.11;81.63;100108.50;5031566;28;20202;-74
2021/03/27 04:27:50;;;;;;;1.10;1.10;;;;;;;5.94;81.28;100113.72;5027381;28;20205;-74
2021/03/27 04:30:28;;;;;;;1.07;1.00;;;;;;;5.95;82.01;100114.63;5034355;28;20742;-75
2021/03/27 04:33:02;;;;;;;2.53;1.20;;;;;;;5.76;82.97;100126.78;5021789;28;20860;-74
2021/03/27 04:35:47;;;;;;;1.50;1.17;;;;;;;5.62;84.47;100120.81;5031769;28;20210;-75
2021/03/27 04:38:18;;;;;;;1.47;0.90;;;;;;;5.46;85.12;100136.38;5026813;28;20687;-74
2021/03/27 04:40:51;;;;;;;1.17;0.80;;;;;;;5.31;84.59;100126.94;5034602;28;20706;-74
2021/03/27 04:43:23;;;;;;;2.50;1.10;;;;;;;5.26;85.89;100136.44;5024127;28;20230;-75
2021/03/27 04:45:52;;;;;;;1.40;1.30;;;;;;;5.32;86.51;100135.56;5030644;28;20603;-76
2021/03/27 04:48:28;;;;;;;2.30;1.33;;;;;;;5.20;86.58;100140.78;5023955;28;20210;-75
2021/03/27 04:51:21;;;;;;;1.17;1.07;;;;;;;5.25;87.05;100136.44;5031688;28;20194;-75
2021/03/27 04:53:52;;;;;;;1.60;1.50;;;;;;;5.32;86.95;100133.81;5025651;28;20217;-75
2021/03/27 04:56:22;;;;;;;1.50;1.40;;;;;;;5.29;86.74;100135.56;5030048;28;20194;-75
2021/03/27 04:58:53;;;;;;;1.73;1.30;;;;;;;5.41;87.00;100134.66;5025610;28;20202;-75
2021/03/27 05:01:34;;;;;;;1.57;1.47;;;;;;;5.40;86.66;100133.81;5029886;28;20246;-75
2021/03/27 05:04:10;;;;;;;1.80;1.70;;;;;;;5.37;86.85;100141.56;5027412;28;20704;-75
2021/03/27 05:06:40;;;;;;;1.70;1.60;;;;;;;5.38;86.85;100141.56;5028680;28;20234;-74
2021/03/27 05:09:27;;;;;;;1.70;1.60;;;;;;;5.42;87.20;100147.59;5027200;28;20198;-75
2021/03/27 05:11:57;;;;;;;1.80;1.70;;;;;;;5.43;86.76;100156.22;5019867;28;20823;-75
2021/03/27 05:14:43;;;;;;;2.10;2.00;;;;;;;5.46;85.90;100146.72;5026001;28;20708;-75
2021/03/27 05:17:16;;;;;;;3.53;2.60;;;;;;;5.49;86.20;100148.44;5027155;28;20195;-75
2021/03/27 05:19:47;;;;;;;2.40;2.30;;;;;;;5.54;85.82;100157.91;5028080;28;20213;-75
2021/03/27 05:22:31;;;;;;;2.53;2.33;;;;;;;5.47;84.88;100153.66;5025858;28;20203;-76
2021/03/27 05:25:12;;;;;;;2.77;2.57;;;;;;;5.40;84.42;100161.44;5029117;28;20203;-75
2021/03/27 05:27:44;;;;;;;2.87;2.67;;;;;;;5.43;84.74;100176.94;5025971;28;20195;-75
2021/03/27 05:30:21;;;;;;;2.63;2.43;;;;;;;5.46;84.34;100174.34;5031223;28;20194;-76
2021/03/27 05:33:06;;;;;;;2.13;2.03;;;;;;;5.39;83.45;100191.59;5023953;28;20218;-75
2021/03/27 05:35:41;;;;;;;2.47;2.30;;;;;;;5.38;84.35;100184.72;5031775;28;20187;-74
2021/03/27 05:38:17;;;;;;;3.17;2.97;;;;;;;5.38;84.19;100202.84;5022569;28;20214;-74
2021/03/27 05:41:29;;;;;;;2.67;2.47;;;;;;;5.31;83.83;100191.66;5031860;28;20671;-75
2021/03/27 05:44:47;;;;;;;2.83;2.63;;;;;;;5.38;83.87;100210.59;5004372;28;20234;-74
2021/03/27 05:48:00;;;;;;;3.03;2.83;;;;;;;5.37;84.36;100212.34;4951691;28;20213;-75
2021/03/27 05:50:47;;;;;;;2.80;2.60;;;;;;;5.28;84.07;100212.34;4952386;28;20201;-74
2021/03/27 05:53:48;;;;;;;3.17;2.97;;;;;;;5.34;84.18;100230.44;5015975;28;20596;-74
2021/03/27 05:56:38;;;;;;;2.47;2.33;;;;;;;5.37;84.77;100233.03;5031635;28;20209;-75
2021/03/27 05:59:28;;;;;;;3.13;2.93;;;;;;;5.33;85.08;100236.50;5027382;28;20205;-74
2021/03/27 06:01:59;;;;;;;3.67;3.37;;;;;;;5.41;84.47;100238.19;5027735;28;20194;-74
2021/03/27 06:04:57;;;;;;;3.70;3.40;;;;;;;5.55;84.10;100239.06;5026632;28;20233;-74
2021/03/27 06:07:48;;;;;;;4.30;3.90;;;;;;;5.44;83.17;100246.81;5025178;28;20301;-74
2021/03/27 06:10:36;;;;;;;4.90;4.50;;;;;;;5.54;83.80;100255.44;5031763;28;20194;-74
2021/03/27 06:13:20;;;;;;;4.70;4.30;;;;;;;5.63;83.74;100258.03;5020736;28;20225;-75
2021/03/27 06:16:18;;;;;;;5.33;4.93;;;;;;;5.62;82.41;100269.25;5032123;28;20246;-75
2021/03/27 06:19:07;;;;;;;5.77;5.27;;;;;;;5.52;82.53;100265.78;5016192;28;20205;-74
2021/03/27 06:21:43;;;;;;;6.67;6.17;;;;;;;5.63;81.34;100267.50;5029147;28;20192;-74
2021/03/27 06:24:17;;;;;;;6.93;6.33;;;;;;;5.63;80.90;100275.28;5025804;28;20225;-74
2021/03/27 06:27:06;;;;;;;10.17;7.37;;;;;;;5.72;80.40;100270.09;5028950;28;20222;-74
2021/03/27 06:30:03;;;;;;;6.80;6.23;;;;;;;5.72;79.79;100278.72;5028003;28;20213;-75
2021/03/27 06:33:05;;;;;;;7.37;6.77;;;;;;;5.72;78.38;100278.72;5025483;28;20203;-75
2021/03/27 06:35:47;;;;;;;8.03;7.43;;;;;;;5.70;78.21;100277.84;5031305;28;20197;-74
2021/03/27 06:38:56;;;;;;;8.90;8.00;;;;;;;5.78;79.37;100289.06;5020912;28;20207;-75
2021/03/27 06:41:47;;;;;;;9.20;8.40;;;;;;;5.76;77.46;100295.13;5029048;28;20198;-75
2021/03/27 06:44:35;;;;;;;9.63;8.93;;;;;;;5.85;78.38;100295.09;5026909;28;20303;-75
2021/03/27 06:47:23;;;;;;;11.03;10.13;;;;;;;5.76;77.70;100316.69;5026077;28;20221;-75
2021/03/27 06:50:03;;;;;;;12.27;11.17;;;;;;;5.54;79.88;100328.78;5027617;28;20198;-75
2021/03/27 06:53:19;;;;;;;12.90;11.70;;;;;;;5.50;81.34;100340.00;5025172;28;20199;-75
2021/03/27 06:55:55;;;;;;;13.83;12.63;;;;;;;5.34;82.61;100343.47;4991758;28;20199;-75
2021/03/27 06:58:41;;;;;;;10.03;9.20;;;;;;;5.36;81.51;100372.78;4986322;28;20214;-74
2021/03/27 07:01:51;;;;;;;7.43;6.63;;;;;;;5.17;80.59;100357.25;5020041;28;20237;-75
2021/03/27 07:04:44;;;;;;;5.80;3.53;;;;;;;4.92;80.08;100360.63;5012001;28;20226;-74
2021/03/27 07:07:42;;;;;;;2.73;2.20;;;;;;;4.73;79.17;100385.56;5025918;28;20241;-77
2021/03/27 07:13:10;;;;;;;3.90;2.80;;;;;;;4.62;81.79;100379.47;5006405;28;20454;-78
2021/03/27 07:15:50;;;;;;;4.03;2.60;;;;;;;4.61;80.68;100373.44;5009722;28;20199;-77
2021/03/27 07:18:42;;;;;;;2.97;2.67;;;;;;;4.66;80.84;100378.63;5017537;28;20187;-78
2021/03/27 07:21:36;;;;;;;3.50;2.87;;;;;;;4.77;79.76;100364.03;5003906;28;20223;-78
2021/03/27 07:24:23;;;;;;;2.63;2.10;;;;;;;4.86;78.85;100365.78;5022213;28;20692;-79
2021/03/27 07:27:17;;;;;;;2.60;1.93;;;;;;;4.97;78.27;100359.81;5015141;28;20210;-80
2021/03/27 07:30:02;;;;;;;2.63;1.50;;;;;;;5.08;74.01;100361.53;5026392;28;20203;-78
2021/03/27 07:32:36;;;;;;;2.97;1.63;;;;;;;5.11;74.06;100369.28;5023619;28;20446;-79
2021/03/27 07:35:33;;;;;;;2.10;1.50;;;;;;;5.13;74.24;100367.56;5031198;28;20210;-80
2021/03/27 07:38:30;;;;;;;3.27;1.87;;;;;;;5.12;75.99;100371.91;5024250;28;20213;-78
2021/03/27 07:41:08;;;;;;;5.53;3.87;;;;;;;5.13;77.65;100371.03;5015632;28;20222;-80
2021/03/27 07:44:12;;;;;;;5.37;4.30;;;;;;;5.27;77.96;100371.06;5024445;28;20242;-78
2021/03/27 07:47:20;;;;;;;6.03;5.53;;;;;;;5.46;77.89;100386.63;4977010;28;20234;-78
2021/03/27 07:50:10;;;;;;;7.63;5.70;;;;;;;5.70;77.42;100378.84;5030590;28;20260;-80
2021/03/27 07:52:52;;;;;;;7.97;7.17;;;;;;;5.82;75.62;100371.94;5018455;28;20357;-79
2021/03/27 07:55:41;;;;;;;10.47;9.53;;;;;;;5.99;75.38;100390.13;5020831;28;20258;-81
2021/03/27 07:58:30;;;;;;;9.90;8.90;;;;;;;6.13;75.29;100378.00;5010895;28;20227;-80
2021/03/27 08:01:28;;;;;;;10.50;9.03;;;;;;;6.19;72.88;100375.38;5027588;28;20222;-81
2021/03/27 08:04:16;;;;;;;10.10;9.20;;;;;;;6.34;74.43;100383.13;5026461;28;20210;-80
2021/03/27 08:06:50;;;;;;;8.90;8.10;;;;;;;6.49;74.81;100371.00;5022185;28;20245;-80
2021/03/27 08:09:50;;;;;;;9.17;8.27;;;;;;;6.63;71.82;100378.72;5030736;28;20240;-80
2021/03/27 08:12:58;;;;;;;9.90;8.93;;;;;;;6.78;72.45;100394.22;5021604;28;20231;-80
2021/03/27 08:15:59;;;;;;;8.93;8.13;;;;;;;6.94;72.09;100393.28;5027587;28;20586;-79
2021/03/27 08:18:51;;;;;;;9.37;8.47;;;;;;;6.97;72.21;100405.38;5026647;28;20412;-80
2021/03/27 08:21:25;;;;;;;10.33;9.23;;;;;;;7.05;71.03;100397.56;5020178;28;20222;-80
2021/03/27 08:24:03;;;;;;;9.93;9.03;;;;;;;7.11;71.89;100402.72;5014152;28;20302;-81
2021/03/27 08:26:58;;;;;;;8.60;7.90;;;;;;;7.05;71.32;100406.19;5007315;28;20231;-82
2021/03/27 08:30:06;;;;;;;11.90;8.37;;;;;;;7.09;69.68;100402.72;5007560;28;20210;-81
2021/03/27 08:32:50;;;;;;;8.73;7.53;;;;;;;7.13;69.87;100398.38;5019068;28;20226;-80
2021/03/27 08:35:25;;;;;;;8.03;7.27;;;;;;;7.16;70.71;100404.41;5011080;28;20812;-81
2021/03/27 08:38:23;;;;;;;8.80;6.27;;;;;;;7.24;68.77;100398.31;5024365;28;20676;-81
2021/03/27 08:41:19;;;;;;;9.87;7.17;;;;;;;7.46;68.97;100409.44;5016846;28;20250;-81
2021/03/27 08:44:15;;;;;;;9.37;7.00;;;;;;;7.65;69.97;100407.56;5037069;28;20194;-82
2021/03/27 08:46:54;;;;;;;7.00;6.13;;;;;;;7.58;69.13;100411.94;5030415;28;20227;-81
2021/03/27 08:49:56;;;;;;;7.37;5.20;;;;;;;7.43;69.72;100414.63;5029727;28;20653;-81
2021/03/27 08:52:40;;;;;;;7.27;5.03;;;;;;;7.65;70.85;100416.22;5029429;28;20232;-81
2021/03/27 08:55:34;;;;;;;5.13;4.70;;;;;;;7.54;68.12;100431.03;5033601;28;20259;-81
2021/03/27 08:58:25;;;;;;;7.73;4.53;;;;;;;7.54;66.66;100426.69;5034310;28;20265;-79
2021/03/27 09:01:09;;;;;;;4.70;4.03;;;;;;;7.59;67.14;100437.06;5023391;28;20591;-80
2021/03/27 09:04:12;;;;;;;6.57;4.57;;;;;;;7.58;67.78;100435.31;5027408;28;20206;-81
2021/03/27 09:06:53;;;;;;;14.93;4.13;;;;;;;7.41;66.74;100443.19;5030894;28;20224;-81
2021/03/27 09:09:37;;;;;;;5.73;3.90;;;;;;;7.20;67.20;100444.19;5029234;28;20190;-80
2021/03/27 09:12:40;;;;;;;4.50;3.60;;;;;;;7.27;67.80;100448.47;5029352;28;20319;-80
2021/03/27 09:15:38;;;;;;;3.93;3.23;;;;;;;7.23;68.53;100464.09;5025922;28;20219;-79
2021/03/27 09:18:14;;;;;;;6.17;3.30;;;;;;;7.27;67.84;100463.19;5025379;28;20190;-80
2021/03/27 09:20:49;;;;;;;3.07;2.27;;;;;;;7.16;69.91;100464.13;5036247;28;20304;-79
2021/03/27 09:23:39;;;;;;;3.07;2.37;;;;;;;6.89;70.34;100480.66;5019798;28;20220;-80
2021/03/27 09:26:20;;;;;;;2.40;2.30;;;;;;;6.88;72.55;100478.94;5001801;28;20215;-80
2021/03/27 09:29:00;;;;;;;2.77;2.30;;;;;;;7.08;72.01;100478.00;5028628;28;20217;-80
2021/03/27 09:31:56;;;;;;;2.73;2.30;;;;;;;7.13;71.77;100484.03;5028442;28;20222;-80
2021/03/27 09:34:40;;;;;;;2.60;2.40;;;;;;;7.45;70.54;100483.91;5018837;28;20194;-80
2021/03/27 09:37:18;;;;;;;2.97;2.17;;;;;;;7.31;68.28;100493.47;5015914;28;20206;-79
2021/03/27 09:39:54;;;;;;;2.77;2.30;;;;;;;7.05;68.86;100514.34;5015412;28;20195;-79
2021/03/27 09:42:52;;;;;;;2.90;2.70;;;;;;;6.79;69.88;100504.91;5015186;28;20292;-80
2021/03/27 09:45:29;;;;;;;2.70;2.50;;;;;;;6.72;70.45;100511.84;5014898;28;20195;-80
2021/03/27 09:48:22;;;;;;;4.23;2.97;;;;;;;6.89;71.35;100500.56;5015780;28;20676;-80
2021/03/27 09:50:58;;;;;;;4.20;3.17;;;;;;;7.24;71.01;100512.56;5015879;28;20257;-79
2021/03/27 09:53:42;;;;;;;3.03;2.83;;;;;;;7.61;68.87;100527.94;5016247;28;20209;-79
2021/03/27 09:56:14;;;;;;;4.17;3.47;;;;;;;7.80;69.12;100528.72;5013313;28;20257;-78
2021/03/27 09:58:51;;;;;;;4.70;3.70;;;;;;;7.34;68.52;100548.84;5016274;28;20202;-79
2021/03/27 10:01:26;;;;;;;1.40;0.70;;;;;;;4.83;76.44;100614.91;5013768;28;20230;-79
2021/03/27 10:04:30;;;;;;;0.60;0.60;;;;;;;3.44;85.29;100638.44;5014355;28;20225;-79
2021/03/27 10:07:17;;;;;;;1.40;0.50;;;;;;;3.40;87.01;100659.91;4945704;28;20247;-79
2021/03/27 10:10:02;;;;;;;2.03;0.80;;;;;;;3.08;88.77;100674.91;5011333;28;20221;-79
2021/03/27 10:12:38;;;;;;;1.07;0.70;;;;;;;2.99;88.36;100680.78;5013610;28;20330;-79
2021/03/27 10:15:14;;;;;;;0.97;0.70;;;;;;;2.80;88.62;100683.94;5014165;28;20298;-78
2021/03/27 10:17:45;;;;;;;0.80;0.70;;;;;;;2.78;88.53;100684.75;5015349;28;20209;-78
2021/03/27 10:20:22;;;;;;;0.70;0.70;;;;;;;2.72;88.21;100697.53;5012980;28;20288;-79
2021/03/27 10:22:56;;;;;;;0.70;0.60;;;;;;;2.75;88.98;100702.72;5014677;28;20212;-79
2021/03/27 10:25:30;;;;;;;3.77;0.80;;;;;;;2.93;88.14;100679.00;5016335;28;20608;-79
2021/03/27 10:28:06;;;;;;;2.03;0.83;;;;;;;3.12;87.93;100672.38;5016247;28;20258;-79
2021/03/27 10:30:47;;;;;;;1.50;0.73;;;;;;;3.19;86.96;100650.13;4317796;28;10000739;-79
2021/03/27 10:33:17;;;;;;;2.03;0.73;;;;;;;3.46;87.69;100667.72;5016363;28;20792;-80
2021/03/27 10:36:20;;;;;;;1.10;0.70;;;;;;;3.53;87.05;100668.69;5030368;28;20205;-79
2021/03/27 10:39:01;;;;;;;0.70;0.70;;;;;;;3.72;86.75;100674.94;5025086;28;20211;-79
2021/03/27 10:41:49;;;;;;;1.00;0.60;;;;;;;3.98;86.28;100670.09;5025518;28;20235;-80
2021/03/27 10:44:25;;;;;;;1.10;0.60;;;;;;;4.03;85.29;100670.16;5032839;28;20197;-80
2021/03/27 10:46:58;;;;;;;0.80;0.80;;;;;;;4.01;83.75;100677.03;5025501;28;20700;-81
2021/03/27 10:49:30;;;;;;;2.00;0.97;;;;;;;3.89;83.76;100678.59;5024372;28;20204;-81
2021/03/27 10:52:22;;;;;;;1.80;0.80;;;;;;;4.07;84.78;100675.38;5028960;28;20253;-80
2021/03/27 10:55:02;;;;;;;2.63;1.40;;;;;;;4.25;83.34;100681.59;5028963;28;21009;-78
2021/03/27 10:57:46;;;;;;;2.00;0.70;;;;;;;4.61;83.32;100675.06;5028572;28;20229;-81
2021/03/27 11:00:29;;;;;;;3.30;1.00;;;;;;;5.03;82.94;100681.44;5032434;28;20709;-81
2021/03/27 11:03:27;;;;;;;1.60;1.20;;;;;;;5.46;82.57;100697.28;5025098;28;20212;-81
2021/03/27 11:06:14;;;;;;;2.77;2.20;;;;;;;5.27;80.27;100688.50;5000495;28;20333;-81
2021/03/27 11:09:28;;;;;;;4.83;1.37;;;;;;;5.20;79.69;100689.34;5028150;28;20713;-80
2021/03/27 11:12:33;;;;;;;2.57;1.43;;;;;;;5.23;80.32;100699.69;5028883;28;20237;-82
2021/03/27 11:15:23;;;;;;;2.70;1.87;;;;;;;5.07;80.25;100693.53;5037153;28;20836;-81
2021/03/27 11:18:28;;;;;;;6.07;5.50;;;;;;;5.20;79.58;100700.53;5025535;28;20202;-80
2021/03/27 11:21:11;;;;;;;3.43;2.33;;;;;;;5.15;79.55;100695.34;5005210;28;20717;-79
2021/03/27 11:24:32;;;;;;;4.43;2.23;;;;;;;5.31;78.87;100711.84;5038107;28;20202;-79
2021/03/27 11:27:27;;;;;;;2.33;1.37;;;;;;;5.57;77.91;100726.69;5030076;28;20222;-79
2021/03/27 11:30:00;;;;;;;1.90;1.10;;;;;;;5.77;78.38;100719.03;5025579;28;20215;-80
2021/03/27 11:32:32;;;;;;;4.80;2.07;;;;;;;5.74;77.75;100735.41;5023250;28;20233;-80
2021/03/27 11:35:04;;;;;;;3.37;1.83;;;;;;;5.70;76.06;100728.47;5028778;28;20224;-78
2021/03/27 11:37:41;;;;;;;2.90;1.60;;;;;;;6.06;76.86;100741.63;5027351;28;20202;-79
2021/03/27 11:40:20;;;;;;;3.60;1.90;;;;;;;6.05;75.63;100748.56;5030214;28;20213;-79
2021/03/27 11:42:59;;;;;;;2.30;1.77;;;;;;;5.81;74.52;100748.38;5026955;28;20213;-80
2021/03/27 11:45:32;;;;;;;3.47;1.63;;;;;;;6.00;72.33;100744.22;5036079;28;20194;-79
2021/03/27 11:48:04;;;;;;;3.40;1.77;;;;;;;5.93;72.78;100746.75;5024434;28;20214;-79
2021/03/27 11:50:45;;;;;;;4.60;2.03;;;;;;;6.10;72.96;100753.75;5032581;28;20209;-78
2021/03/27 11:53:21;;;;;;;5.27;1.90;;;;;;;6.33;71.58;100749.53;5018425;28;20203;-78
2021/03/27 11:55:54;;;;;;;4.30;2.10;;;;;;;6.47;68.01;100754.75;4998078;28;20196;-79
2021/03/27 11:58:31;;;;;;;4.07;2.00;;;;;;;6.68;67.48;100759.16;5022891;28;20653;-79
2021/03/27 12:01:01;;;;;;;4.23;2.90;;;;;;;7.29;66.34;100758.31;4998795;28;20223;-79
2021/03/27 12:03:52;;;;;;;6.73;4.97;;;;;;;8.15;64.58;100746.88;5024096;28;20222;-80
2021/03/27 12:06:31;;;;;;;4.17;2.60;;;;;;;8.07;61.34;100759.06;5027996;28;20288;-80
2021/03/27 12:09:09;;;;;;;3.13;2.20;;;;;;;8.13;61.09;100754.69;5017313;28;20198;-80
2021/03/27 12:12:04;;;;;;;3.87;2.80;;;;;;;7.67;64.45;100756.53;5016065;28;20241;-79
2021/03/27 12:14:34;;;;;;;3.90;1.93;;;;;;;8.23;60.74;100755.50;5034362;28;20245;-79
2021/03/27 12:17:12;;;;;;;6.50;3.00;;;;;;;8.77;62.20;100757.00;5027359;28;20205;-80
2021/03/27 12:19:48;;;;;;;4.83;2.70;;;;;;;9.32;60.47;100751.38;5028116;28;20294;-80
2021/03/27 12:22:19;;;;;;;4.30;2.70;;;;;;;8.68;59.55;100765.72;5026997;28;20737;-79
2021/03/27 12:24:55;;;;;;;6.37;2.87;;;;;;;8.15;61.94;100759.88;5026843;28;20217;-78
2021/03/27 12:27:26;;;;;;;5.77;3.27;;;;;;;7.93;60.68;100765.16;5027137;28;20224;-79
2021/03/27 12:30:01;;;;;;;4.47;2.97;;;;;;;8.69;60.71;100757.91;5001005;28;20210;-79
2021/03/27 12:32:42;;;;;;;3.87;2.87;;;;;;;9.67;58.99;100765.81;5022740;28;20257;-80
2021/03/27 12:35:18;;;;;;;7.77;7.07;;;;;;;10.08;55.78;100739.28;5010543;28;20690;-79
2021/03/27 12:38:00;;;;;;;12.50;11.13;;;;;;;9.69;58.21;100769.25;5012324;28;20207;-80
2021/03/27 12:40:31;;;;;;;10.83;9.83;;;;;;;9.71;58.29;100776.19;5018342;28;20226;-78
2021/03/27 12:43:05;;;;;;;7.37;4.63;;;;;;;9.08;60.19;100787.16;5021119;28;20210;-79